sensor_id;sensor_type;location;lat;lon;timestamp;temperature;humidity
23475;DHT22;11910;52.086;21.066;2024-03-02T00:01:54;8.70;99.90
23475;DHT22;11910;52.086;21.066;2024-03-02T00:04:20;8.70;99.90
23475;DHT22;11910;52.086;21.066;2024-03-02T00:06:45;8.70;99.90
23475;DHT22;11910;52.086;21.066;2024-03-02T00:09:11;8.70;99.90
23475;DHT22;11910;52.086;21.066;2024-03-02T00:11:38;8.60;99.90
23475;DHT22;11910;52.086;21.066;2024-03-02T00:14:04;8.70;99.90
23475;DHT22;11910;52.086;21.066;2024-03-02T00:16:30;8.60;99.90
23475;DHT22;11910;52.086;21.066;2024-03-02T00:19:01;8.60;99.90
23475;DHT22;11910;52.086;21.066;2024-03-02T00:21:30;8.60;99.90
23475;DHT22;11910;52.086;21.066;2024-03-02T00:23:56;8.60;99.90
23475;DHT22;11910;52.086;21.066;2024-03-02T00:26:22;8.60;99.90
23475;DHT22;11910;52.086;21.066;2024-03-02T00:28:48;8.50;99.90
23475;DHT22;11910;52.086;21.066;2024-03-02T00:31:16;8.50;99.90
23475;DHT22;11910;52.086;21.066;2024-03-02T00:33:48;8.50;99.90
23475;DHT22;11910;52.086;21.066;2024-03-02T00:36:27;8.50;99.90
23475;DHT22;11910;52.086;21.066;2024-03-02T00:38:54;8.40;99.90
23475;DHT22;11910;52.086;21.066;2024-03-02T00:46:20;8.40;99.90
23475;DHT22;11910;52.086;21.066;2024-03-02T00:49:03;8.40;99.90
23475;DHT22;11910;52.086;21.066;2024-03-02T00:51:33;8.40;99.90
23475;DHT22;11910;52.086;21.066;2024-03-02T00:54:04;8.40;99.90
23475;DHT22;11910;52.086;21.066;2024-03-02T00:56:31;8.30;99.90
23475;DHT22;11910;52.086;21.066;2024-03-02T00:58:57;8.30;99.90
23475;DHT22;11910;52.086;21.066;2024-03-02T01:01:23;8.30;99.90
23475;DHT22;11910;52.086;21.066;2024-03-02T01:03:49;8.30;99.90
23475;DHT22;11910;52.086;21.066;2024-03-02T01:06:16;8.30;99.90
23475;DHT22;11910;52.086;21.066;2024-03-02T01:08:42;8.30;99.90
23475;DHT22;11910;52.086;21.066;2024-03-02T01:11:08;8.30;99.90
23475;DHT22;11910;52.086;21.066;2024-03-02T01:13:34;8.30;99.90
23475;DHT22;11910;52.086;21.066;2024-03-02T01:16:00;8.30;99.90
23475;DHT22;11910;52.086;21.066;2024-03-02T01:18:26;8.30;99.90
23475;DHT22;11910;52.086;21.066;2024-03-02T01:20:52;8.20;99.90
23475;DHT22;11910;52.086;21.066;2024-03-02T01:23:21;8.20;99.90
23475;DHT22;11910;52.086;21.066;2024-03-02T01:25:50;8.30;99.90
23475;DHT22;11910;52.086;21.066;2024-03-02T01:28:16;8.30;99.90
23475;DHT22;11910;52.086;21.066;2024-03-02T01:30:42;8.30;99.90
23475;DHT22;11910;52.086;21.066;2024-03-02T01:33:07;8.30;99.90
23475;DHT22;11910;52.086;21.066;2024-03-02T01:35:33;8.30;99.90
23475;DHT22;11910;52.086;21.066;2024-03-02T01:38:00;8.30;99.90
23475;DHT22;11910;52.086;21.066;2024-03-02T01:40:26;8.30;99.90
23475;DHT22;11910;52.086;21.066;2024-03-02T01:42:53;8.30;99.90
23475;DHT22;11910;52.086;21.066;2024-03-02T01:45:23;8.20;99.90
23475;DHT22;11910;52.086;21.066;2024-03-02T01:47:49;8.20;99.90
23475;DHT22;11910;52.086;21.066;2024-03-02T01:50:16;8.30;99.90
23475;DHT22;11910;52.086;21.066;2024-03-02T01:52:49;8.20;99.90
23475;DHT22;11910;52.086;21.066;2024-03-02T01:55:15;8.30;99.90
23475;DHT22;11910;52.086;21.066;2024-03-02T01:57:41;8.20;99.90
23475;DHT22;11910;52.086;21.066;2024-03-02T02:00:07;8.20;99.90
23475;DHT22;11910;52.086;21.066;2024-03-02T02:02:33;8.20;99.90
23475;DHT22;11910;52.086;21.066;2024-03-02T02:04:59;8.20;99.90
23475;DHT22;11910;52.086;21.066;2024-03-02T02:07:24;8.20;99.90
23475;DHT22;11910;52.086;21.066;2024-03-02T02:09:50;8.20;99.90
23475;DHT22;11910;52.086;21.066;2024-03-02T02:12:16;8.20;99.90
23475;DHT22;11910;52.086;21.066;2024-03-02T02:14:47;8.20;99.90
23475;DHT22;11910;52.086;21.066;2024-03-02T02:17:14;8.20;99.90
23475;DHT22;11910;52.086;21.066;2024-03-02T02:19:41;8.10;99.90
23475;DHT22;11910;52.086;21.066;2024-03-02T02:22:06;8.10;99.90
23475;DHT22;11910;52.086;21.066;2024-03-02T02:24:32;8.10;99.90
23475;DHT22;11910;52.086;21.066;2024-03-02T02:26:58;8.00;99.90
23475;DHT22;11910;52.086;21.066;2024-03-02T02:29:23;8.00;99.90
23475;DHT22;11910;52.086;21.066;2024-03-02T02:31:49;8.00;99.90
23475;DHT22;11910;52.086;21.066;2024-03-02T02:34:15;8.00;99.90
23475;DHT22;11910;52.086;21.066;2024-03-02T02:36:41;8.00;99.90
23475;DHT22;11910;52.086;21.066;2024-03-02T02:39:13;8.00;99.90
23475;DHT22;11910;52.086;21.066;2024-03-02T02:41:39;8.00;99.90
23475;DHT22;11910;52.086;21.066;2024-03-02T02:44:05;7.90;99.90
23475;DHT22;11910;52.086;21.066;2024-03-02T02:46:30;7.90;99.90
23475;DHT22;11910;52.086;21.066;2024-03-02T02:48:56;7.90;99.90
23475;DHT22;11910;52.086;21.066;2024-03-02T02:51:22;7.90;99.90
23475;DHT22;11910;52.086;21.066;2024-03-02T02:53:47;7.90;99.90
23475;DHT22;11910;52.086;21.066;2024-03-02T02:56:13;7.90;99.90
23475;DHT22;11910;52.086;21.066;2024-03-02T02:58:40;7.80;99.90
23475;DHT22;11910;52.086;21.066;2024-03-02T03:01:07;7.80;99.90
23475;DHT22;11910;52.086;21.066;2024-03-02T03:03:33;7.80;99.90
23475;DHT22;11910;52.086;21.066;2024-03-02T03:05:59;7.80;99.90
23475;DHT22;11910;52.086;21.066;2024-03-02T03:08:24;7.80;99.90
23475;DHT22;11910;52.086;21.066;2024-03-02T03:10:50;7.80;99.90
23475;DHT22;11910;52.086;21.066;2024-03-02T03:13:16;7.80;99.90
23475;DHT22;11910;52.086;21.066;2024-03-02T03:15:42;7.70;99.90
23475;DHT22;11910;52.086;21.066;2024-03-02T03:18:07;7.70;99.90
23475;DHT22;11910;52.086;21.066;2024-03-02T03:20:35;7.70;99.90
23475;DHT22;11910;52.086;21.066;2024-03-02T03:23:01;7.70;99.90
23475;DHT22;11910;52.086;21.066;2024-03-02T03:25:27;7.70;99.90
23475;DHT22;11910;52.086;21.066;2024-03-02T03:27:53;7.70;99.90
23475;DHT22;11910;52.086;21.066;2024-03-02T03:30:18;7.70;99.90
23475;DHT22;11910;52.086;21.066;2024-03-02T03:32:44;7.70;99.90
23475;DHT22;11910;52.086;21.066;2024-03-02T03:35:10;7.70;99.90
23475;DHT22;11910;52.086;21.066;2024-03-02T03:37:37;7.60;99.90
23475;DHT22;11910;52.086;21.066;2024-03-02T03:40:04;7.70;99.90
23475;DHT22;11910;52.086;21.066;2024-03-02T03:42:35;7.60;99.90
23475;DHT22;11910;52.086;21.066;2024-03-02T03:45:01;7.60;99.90
23475;DHT22;11910;52.086;21.066;2024-03-02T03:47:27;7.60;99.90
23475;DHT22;11910;52.086;21.066;2024-03-02T03:49:53;7.60;99.90
23475;DHT22;11910;52.086;21.066;2024-03-02T03:52:18;7.60;99.90
23475;DHT22;11910;52.086;21.066;2024-03-02T03:54:44;7.50;99.90
23475;DHT22;11910;52.086;21.066;2024-03-02T03:57:10;7.50;99.90
23475;DHT22;11910;52.086;21.066;2024-03-02T03:59:35;7.50;99.90
23475;DHT22;11910;52.086;21.066;2024-03-02T04:02:03;7.50;99.90
23475;DHT22;11910;52.086;21.066;2024-03-02T04:04:29;7.40;99.90
23475;DHT22;11910;52.086;21.066;2024-03-02T04:06:55;7.50;99.90
23475;DHT22;11910;52.086;21.066;2024-03-02T04:09:21;7.40;99.90
23475;DHT22;11910;52.086;21.066;2024-03-02T04:11:46;7.40;99.90
23475;DHT22;11910;52.086;21.066;2024-03-02T04:14:12;7.40;99.90
23475;DHT22;11910;52.086;21.066;2024-03-02T04:16:38;7.40;99.90
23475;DHT22;11910;52.086;21.066;2024-03-02T04:19:04;7.40;99.90
23475;DHT22;11910;52.086;21.066;2024-03-02T04:21:30;7.50;99.90
23475;DHT22;11910;52.086;21.066;2024-03-02T04:23:56;7.40;99.90
23475;DHT22;11910;52.086;21.066;2024-03-02T04:26:25;7.40;99.90
23475;DHT22;11910;52.086;21.066;2024-03-02T04:28:51;7.40;99.90
23475;DHT22;11910;52.086;21.066;2024-03-02T04:31:17;7.40;99.90
23475;DHT22;11910;52.086;21.066;2024-03-02T04:33:43;7.40;99.90
23475;DHT22;11910;52.086;21.066;2024-03-02T04:36:09;7.40;99.90
23475;DHT22;11910;52.086;21.066;2024-03-02T04:38:35;7.50;99.90
23475;DHT22;11910;52.086;21.066;2024-03-02T04:41:01;7.50;99.90
23475;DHT22;11910;52.086;21.066;2024-03-02T04:43:27;7.40;99.90
23475;DHT22;11910;52.086;21.066;2024-03-02T04:45:53;7.40;99.90
23475;DHT22;11910;52.086;21.066;2024-03-02T04:48:19;7.40;99.90
23475;DHT22;11910;52.086;21.066;2024-03-02T04:50:45;7.40;99.90
23475;DHT22;11910;52.086;21.066;2024-03-02T04:53:11;7.40;99.90
23475;DHT22;11910;52.086;21.066;2024-03-02T04:55:36;7.40;99.90
23475;DHT22;11910;52.086;21.066;2024-03-02T04:58:05;7.50;99.90
23475;DHT22;11910;52.086;21.066;2024-03-02T05:00:32;7.50;99.90
23475;DHT22;11910;52.086;21.066;2024-03-02T05:02:57;7.50;99.90
23475;DHT22;11910;52.086;21.066;2024-03-02T05:05:23;7.50;99.90
23475;DHT22;11910;52.086;21.066;2024-03-02T05:07:49;7.50;99.90
23475;DHT22;11910;52.086;21.066;2024-03-02T05:10:15;7.50;99.90
23475;DHT22;11910;52.086;21.066;2024-03-02T05:12:41;7.50;99.90
23475;DHT22;11910;52.086;21.066;2024-03-02T05:15:07;7.50;99.90
23475;DHT22;11910;52.086;21.066;2024-03-02T05:17:33;7.50;99.90
23475;DHT22;11910;52.086;21.066;2024-03-02T05:19:59;7.50;99.90
23475;DHT22;11910;52.086;21.066;2024-03-02T05:22:24;7.50;99.90
23475;DHT22;11910;52.086;21.066;2024-03-02T05:24:50;7.50;99.90
23475;DHT22;11910;52.086;21.066;2024-03-02T05:27:16;7.50;99.90
23475;DHT22;11910;52.086;21.066;2024-03-02T05:29:42;7.40;99.90
23475;DHT22;11910;52.086;21.066;2024-03-02T05:32:07;7.50;99.90
23475;DHT22;11910;52.086;21.066;2024-03-02T05:34:34;7.50;99.90
23475;DHT22;11910;52.086;21.066;2024-03-02T05:37:01;7.50;99.90
23475;DHT22;11910;52.086;21.066;2024-03-02T05:39:27;7.50;99.90
23475;DHT22;11910;52.086;21.066;2024-03-02T05:41:52;7.50;99.90
23475;DHT22;11910;52.086;21.066;2024-03-02T05:44:18;7.60;99.90
23475;DHT22;11910;52.086;21.066;2024-03-02T05:46:45;7.50;99.90
23475;DHT22;11910;52.086;21.066;2024-03-02T05:49:11;7.60;99.90
23475;DHT22;11910;52.086;21.066;2024-03-02T05:51:36;7.60;99.90
23475;DHT22;11910;52.086;21.066;2024-03-02T05:54:02;7.60;99.90
23475;DHT22;11910;52.086;21.066;2024-03-02T05:56:28;7.60;99.90
23475;DHT22;11910;52.086;21.066;2024-03-02T05:58:54;7.70;99.90
23475;DHT22;11910;52.086;21.066;2024-03-02T06:01:45;7.60;99.90
23475;DHT22;11910;52.086;21.066;2024-03-02T06:04:12;7.60;99.90
23475;DHT22;11910;52.086;21.066;2024-03-02T06:06:39;7.60;99.90
23475;DHT22;11910;52.086;21.066;2024-03-02T06:09:05;7.60;99.90
23475;DHT22;11910;52.086;21.066;2024-03-02T06:11:35;7.70;99.90
23475;DHT22;11910;52.086;21.066;2024-03-02T06:14:01;7.70;99.90
23475;DHT22;11910;52.086;21.066;2024-03-02T06:16:27;7.70;99.90
23475;DHT22;11910;52.086;21.066;2024-03-02T06:18:53;7.70;99.90
23475;DHT22;11910;52.086;21.066;2024-03-02T06:21:19;7.70;99.90
23475;DHT22;11910;52.086;21.066;2024-03-02T06:23:45;7.70;99.90
23475;DHT22;11910;52.086;21.066;2024-03-02T06:26:11;7.70;99.90
23475;DHT22;11910;52.086;21.066;2024-03-02T06:28:38;7.80;99.90
23475;DHT22;11910;52.086;21.066;2024-03-02T06:31:04;7.80;99.90
23475;DHT22;11910;52.086;21.066;2024-03-02T06:33:39;7.80;99.90
23475;DHT22;11910;52.086;21.066;2024-03-02T06:36:05;7.80;99.90
23475;DHT22;11910;52.086;21.066;2024-03-02T06:38:34;7.80;99.90
23475;DHT22;11910;52.086;21.066;2024-03-02T06:40:59;7.90;99.90
23475;DHT22;11910;52.086;21.066;2024-03-02T06:43:25;7.90;99.90
23475;DHT22;11910;52.086;21.066;2024-03-02T06:45:51;7.90;99.90
23475;DHT22;11910;52.086;21.066;2024-03-02T06:48:17;7.90;99.90
23475;DHT22;11910;52.086;21.066;2024-03-02T06:50:49;8.00;99.90
23475;DHT22;11910;52.086;21.066;2024-03-02T06:53:15;8.00;99.90
23475;DHT22;11910;52.086;21.066;2024-03-02T06:55:43;8.00;99.90
23475;DHT22;11910;52.086;21.066;2024-03-02T06:58:14;8.00;99.90
23475;DHT22;11910;52.086;21.066;2024-03-02T07:00:43;8.00;99.90
23475;DHT22;11910;52.086;21.066;2024-03-02T07:03:13;8.00;99.90
23475;DHT22;11910;52.086;21.066;2024-03-02T07:05:39;8.10;99.90
23475;DHT22;11910;52.086;21.066;2024-03-02T07:08:05;8.10;99.90
23475;DHT22;11910;52.086;21.066;2024-03-02T07:10:31;8.10;99.90
23475;DHT22;11910;52.086;21.066;2024-03-02T07:12:57;8.20;99.90
23475;DHT22;11910;52.086;21.066;2024-03-02T07:15:22;8.20;99.90
23475;DHT22;11910;52.086;21.066;2024-03-02T07:18:14;8.20;99.90
23475;DHT22;11910;52.086;21.066;2024-03-02T07:20:40;8.20;99.90
23475;DHT22;11910;52.086;21.066;2024-03-02T07:23:05;8.30;99.90
23475;DHT22;11910;52.086;21.066;2024-03-02T07:25:31;8.30;99.90
23475;DHT22;11910;52.086;21.066;2024-03-02T07:27:57;8.30;99.90
23475;DHT22;11910;52.086;21.066;2024-03-02T07:30:24;8.30;99.90
23475;DHT22;11910;52.086;21.066;2024-03-02T07:32:52;8.30;99.90
23475;DHT22;11910;52.086;21.066;2024-03-02T07:35:17;8.30;99.90
23475;DHT22;11910;52.086;21.066;2024-03-02T07:37:43;8.40;99.90
23475;DHT22;11910;52.086;21.066;2024-03-02T07:40:10;8.40;99.90
23475;DHT22;11910;52.086;21.066;2024-03-02T07:42:40;8.40;99.90
23475;DHT22;11910;52.086;21.066;2024-03-02T07:45:06;8.50;99.90
23475;DHT22;11910;52.086;21.066;2024-03-02T07:47:35;8.50;99.90
23475;DHT22;11910;52.086;21.066;2024-03-02T07:50:02;8.50;99.90
23475;DHT22;11910;52.086;21.066;2024-03-02T07:52:28;8.50;99.90
23475;DHT22;11910;52.086;21.066;2024-03-02T07:54:54;8.50;99.90
23475;DHT22;11910;52.086;21.066;2024-03-02T07:57:21;8.60;99.90
23475;DHT22;11910;52.086;21.066;2024-03-02T07:59:47;8.60;99.90
23475;DHT22;11910;52.086;21.066;2024-03-02T08:02:12;8.60;99.90
23475;DHT22;11910;52.086;21.066;2024-03-02T08:04:38;8.60;99.90
23475;DHT22;11910;52.086;21.066;2024-03-02T08:07:04;8.60;99.90
23475;DHT22;11910;52.086;21.066;2024-03-02T08:09:32;8.60;99.90
23475;DHT22;11910;52.086;21.066;2024-03-02T08:11:58;8.70;99.90
23475;DHT22;11910;52.086;21.066;2024-03-02T08:14:24;8.70;99.90
23475;DHT22;11910;52.086;21.066;2024-03-02T08:16:50;8.70;99.90
23475;DHT22;11910;52.086;21.066;2024-03-02T08:19:15;8.80;99.90
23475;DHT22;11910;52.086;21.066;2024-03-02T08:21:42;8.80;99.90
23475;DHT22;11910;52.086;21.066;2024-03-02T08:24:08;8.70;99.90
23475;DHT22;11910;52.086;21.066;2024-03-02T08:26:34;8.70;99.90
23475;DHT22;11910;52.086;21.066;2024-03-02T08:28:59;8.70;99.90
23475;DHT22;11910;52.086;21.066;2024-03-02T08:31:27;8.70;99.90
23475;DHT22;11910;52.086;21.066;2024-03-02T08:33:53;8.70;99.90
23475;DHT22;11910;52.086;21.066;2024-03-02T08:36:19;8.70;99.90
23475;DHT22;11910;52.086;21.066;2024-03-02T08:38:45;8.70;99.90
23475;DHT22;11910;52.086;21.066;2024-03-02T08:41:11;8.70;99.90
23475;DHT22;11910;52.086;21.066;2024-03-02T08:43:40;8.70;99.90
23475;DHT22;11910;52.086;21.066;2024-03-02T08:46:06;8.70;99.90
23475;DHT22;11910;52.086;21.066;2024-03-02T08:48:32;8.70;99.90
23475;DHT22;11910;52.086;21.066;2024-03-02T08:50:58;8.70;99.90
23475;DHT22;11910;52.086;21.066;2024-03-02T08:53:24;8.70;99.90
23475;DHT22;11910;52.086;21.066;2024-03-02T08:55:49;8.80;99.90
23475;DHT22;11910;52.086;21.066;2024-03-02T08:58:15;8.80;99.90
23475;DHT22;11910;52.086;21.066;2024-03-02T09:00:41;8.90;99.90
23475;DHT22;11910;52.086;21.066;2024-03-02T09:03:07;8.80;99.90
23475;DHT22;11910;52.086;21.066;2024-03-02T09:05:33;8.90;99.90
23475;DHT22;11910;52.086;21.066;2024-03-02T09:07:59;8.90;99.90
23475;DHT22;11910;52.086;21.066;2024-03-02T09:10:24;8.90;99.90
23475;DHT22;11910;52.086;21.066;2024-03-02T09:12:50;8.90;99.90
23475;DHT22;11910;52.086;21.066;2024-03-02T09:15:16;9.00;99.90
23475;DHT22;11910;52.086;21.066;2024-03-02T09:17:41;9.00;99.90
23475;DHT22;11910;52.086;21.066;2024-03-02T09:20:07;9.00;99.90
23475;DHT22;11910;52.086;21.066;2024-03-02T09:22:33;9.00;99.90
23475;DHT22;11910;52.086;21.066;2024-03-02T09:24:59;9.00;99.90
23475;DHT22;11910;52.086;21.066;2024-03-02T09:27:25;8.90;99.90
23475;DHT22;11910;52.086;21.066;2024-03-02T09:29:50;8.90;99.90
23475;DHT22;11910;52.086;21.066;2024-03-02T09:32:16;9.00;99.90
23475;DHT22;11910;52.086;21.066;2024-03-02T09:34:42;9.00;99.90
23475;DHT22;11910;52.086;21.066;2024-03-02T09:37:08;9.10;99.90
23475;DHT22;11910;52.086;21.066;2024-03-02T09:39:34;9.10;99.90
23475;DHT22;11910;52.086;21.066;2024-03-02T09:42:00;9.20;99.90
23475;DHT22;11910;52.086;21.066;2024-03-02T09:44:26;9.20;99.90
23475;DHT22;11910;52.086;21.066;2024-03-02T09:46:52;9.20;99.90
23475;DHT22;11910;52.086;21.066;2024-03-02T09:49:18;9.20;99.90
23475;DHT22;11910;52.086;21.066;2024-03-02T09:51:48;9.20;99.90
23475;DHT22;11910;52.086;21.066;2024-03-02T09:54:17;9.20;99.90
23475;DHT22;11910;52.086;21.066;2024-03-02T09:56:44;9.30;99.90
23475;DHT22;11910;52.086;21.066;2024-03-02T09:59:10;9.30;99.90
23475;DHT22;11910;52.086;21.066;2024-03-02T10:01:36;9.40;99.90
23475;DHT22;11910;52.086;21.066;2024-03-02T10:04:02;9.40;99.90
23475;DHT22;11910;52.086;21.066;2024-03-02T10:06:28;9.40;99.90
23475;DHT22;11910;52.086;21.066;2024-03-02T10:08:55;9.30;99.90
23475;DHT22;11910;52.086;21.066;2024-03-02T10:11:30;9.30;99.90
23475;DHT22;11910;52.086;21.066;2024-03-02T10:14:07;9.30;99.90
23475;DHT22;11910;52.086;21.066;2024-03-02T10:16:40;9.30;99.90
23475;DHT22;11910;52.086;21.066;2024-03-02T10:19:23;9.40;99.90
23475;DHT22;11910;52.086;21.066;2024-03-02T10:21:49;9.50;99.90
23475;DHT22;11910;52.086;21.066;2024-03-02T10:24:16;9.60;99.90
23475;DHT22;11910;52.086;21.066;2024-03-02T10:26:45;9.70;99.90
23475;DHT22;11910;52.086;21.066;2024-03-02T10:29:11;9.70;99.90
23475;DHT22;11910;52.086;21.066;2024-03-02T10:31:41;9.80;99.90
23475;DHT22;11910;52.086;21.066;2024-03-02T10:34:09;9.80;99.90
23475;DHT22;11910;52.086;21.066;2024-03-02T10:36:35;9.90;99.90
23475;DHT22;11910;52.086;21.066;2024-03-02T10:39:03;10.00;99.90
23475;DHT22;11910;52.086;21.066;2024-03-02T10:41:33;10.10;99.90
23475;DHT22;11910;52.086;21.066;2024-03-02T10:43:59;10.20;99.90
23475;DHT22;11910;52.086;21.066;2024-03-02T10:46:28;10.20;99.90
23475;DHT22;11910;52.086;21.066;2024-03-02T10:48:56;10.20;99.90
23475;DHT22;11910;52.086;21.066;2024-03-02T10:51:24;10.30;99.90
23475;DHT22;11910;52.086;21.066;2024-03-02T10:53:51;10.30;99.90
23475;DHT22;11910;52.086;21.066;2024-03-02T10:56:28;10.40;99.90
23475;DHT22;11910;52.086;21.066;2024-03-02T11:01:43;10.40;99.90
23475;DHT22;11910;52.086;21.066;2024-03-02T11:04:13;10.40;99.90
23475;DHT22;11910;52.086;21.066;2024-03-02T11:06:50;10.50;99.90
23475;DHT22;11910;52.086;21.066;2024-03-02T11:09:21;10.50;99.90
23475;DHT22;11910;52.086;21.066;2024-03-02T11:12:03;10.60;99.90
23475;DHT22;11910;52.086;21.066;2024-03-02T11:14:31;10.60;99.90
23475;DHT22;11910;52.086;21.066;2024-03-02T11:17:01;10.60;99.90
23475;DHT22;11910;52.086;21.066;2024-03-02T11:19:27;10.70;99.90
23475;DHT22;11910;52.086;21.066;2024-03-02T11:21:54;10.70;99.90
23475;DHT22;11910;52.086;21.066;2024-03-02T11:26:53;10.70;99.90
23475;DHT22;11910;52.086;21.066;2024-03-02T11:32:16;10.90;99.90
23475;DHT22;11910;52.086;21.066;2024-03-02T11:34:43;11.00;99.90
23475;DHT22;11910;52.086;21.066;2024-03-02T11:37:13;11.00;99.90
23475;DHT22;11910;52.086;21.066;2024-03-02T11:39:39;11.10;99.90
23475;DHT22;11910;52.086;21.066;2024-03-02T11:42:06;11.20;99.90
23475;DHT22;11910;52.086;21.066;2024-03-02T11:44:35;11.30;99.90
23475;DHT22;11910;52.086;21.066;2024-03-02T11:47:02;11.40;99.90
23475;DHT22;11910;52.086;21.066;2024-03-02T11:49:45;11.40;99.90
23475;DHT22;11910;52.086;21.066;2024-03-02T11:52:12;11.50;99.90
23475;DHT22;11910;52.086;21.066;2024-03-02T11:54:40;11.60;99.90
23475;DHT22;11910;52.086;21.066;2024-03-02T11:57:08;11.70;99.90
23475;DHT22;11910;52.086;21.066;2024-03-02T11:59:35;11.70;99.90
23475;DHT22;11910;52.086;21.066;2024-03-02T12:02:01;11.80;99.90
23475;DHT22;11910;52.086;21.066;2024-03-02T12:04:29;11.80;99.90
23475;DHT22;11910;52.086;21.066;2024-03-02T12:07:03;11.90;99.90
23475;DHT22;11910;52.086;21.066;2024-03-02T12:09:29;11.90;99.90
23475;DHT22;11910;52.086;21.066;2024-03-02T12:12:06;11.90;99.90
23475;DHT22;11910;52.086;21.066;2024-03-02T12:14:33;11.90;99.90
23475;DHT22;11910;52.086;21.066;2024-03-02T12:16:59;11.90;99.90
23475;DHT22;11910;52.086;21.066;2024-03-02T12:19:26;11.90;99.90
23475;DHT22;11910;52.086;21.066;2024-03-02T12:22:01;11.90;99.90
23475;DHT22;11910;52.086;21.066;2024-03-02T12:24:30;12.00;99.90
23475;DHT22;11910;52.086;21.066;2024-03-02T12:26:56;12.00;99.90
23475;DHT22;11910;52.086;21.066;2024-03-02T12:29:23;12.10;99.90
23475;DHT22;11910;52.086;21.066;2024-03-02T12:31:50;12.00;99.90
23475;DHT22;11910;52.086;21.066;2024-03-02T12:34:18;12.00;99.90
23475;DHT22;11910;52.086;21.066;2024-03-02T12:36:45;12.00;99.90
23475;DHT22;11910;52.086;21.066;2024-03-02T12:39:13;12.00;99.90
23475;DHT22;11910;52.086;21.066;2024-03-02T12:41:41;11.90;99.90
23475;DHT22;11910;52.086;21.066;2024-03-02T12:44:07;11.90;99.90
23475;DHT22;11910;52.086;21.066;2024-03-02T12:46:33;11.90;99.90
23475;DHT22;11910;52.086;21.066;2024-03-02T12:49:07;11.90;99.90
23475;DHT22;11910;52.086;21.066;2024-03-02T12:51:34;11.90;99.90
23475;DHT22;11910;52.086;21.066;2024-03-02T12:54:01;12.00;99.90
23475;DHT22;11910;52.086;21.066;2024-03-02T12:56:27;12.10;99.90
23475;DHT22;11910;52.086;21.066;2024-03-02T12:58:54;12.00;99.90
23475;DHT22;11910;52.086;21.066;2024-03-02T13:01:19;11.90;99.90
23475;DHT22;11910;52.086;21.066;2024-03-02T13:03:48;11.90;99.90
23475;DHT22;11910;52.086;21.066;2024-03-02T13:06:13;11.80;99.90
23475;DHT22;11910;52.086;21.066;2024-03-02T13:08:39;11.80;99.90
23475;DHT22;11910;52.086;21.066;2024-03-02T13:11:05;11.80;99.90
23475;DHT22;11910;52.086;21.066;2024-03-02T13:13:32;11.80;99.90
23475;DHT22;11910;52.086;21.066;2024-03-02T13:15:58;11.80;99.90
23475;DHT22;11910;52.086;21.066;2024-03-02T13:18:24;11.90;99.90
23475;DHT22;11910;52.086;21.066;2024-03-02T13:20:50;11.90;99.90
23475;DHT22;11910;52.086;21.066;2024-03-02T13:23:16;11.90;99.90
23475;DHT22;11910;52.086;21.066;2024-03-02T13:25:41;11.80;99.90
23475;DHT22;11910;52.086;21.066;2024-03-02T13:28:08;11.70;99.90
23475;DHT22;11910;52.086;21.066;2024-03-02T13:30:34;11.60;99.90
23475;DHT22;11910;52.086;21.066;2024-03-02T13:33:00;11.50;99.90
23475;DHT22;11910;52.086;21.066;2024-03-02T13:35:26;11.40;99.90
23475;DHT22;11910;52.086;21.066;2024-03-02T13:37:51;11.40;99.90
23475;DHT22;11910;52.086;21.066;2024-03-02T13:40:17;11.30;99.90
23475;DHT22;11910;52.086;21.066;2024-03-02T13:42:48;11.30;99.90
23475;DHT22;11910;52.086;21.066;2024-03-02T13:45:15;11.20;99.90
23475;DHT22;11910;52.086;21.066;2024-03-02T13:47:41;11.20;99.90
23475;DHT22;11910;52.086;21.066;2024-03-02T13:50:07;11.20;99.90
23475;DHT22;11910;52.086;21.066;2024-03-02T13:52:33;11.10;99.90
23475;DHT22;11910;52.086;21.066;2024-03-02T13:54:59;11.10;99.90
23475;DHT22;11910;52.086;21.066;2024-03-02T13:57:24;11.10;99.90
23475;DHT22;11910;52.086;21.066;2024-03-02T13:59:50;11.10;99.90
23475;DHT22;11910;52.086;21.066;2024-03-02T14:02:17;11.00;99.90
23475;DHT22;11910;52.086;21.066;2024-03-02T14:04:47;10.90;99.90
23475;DHT22;11910;52.086;21.066;2024-03-02T14:07:16;10.90;99.90
23475;DHT22;11910;52.086;21.066;2024-03-02T14:09:42;11.00;99.90
23475;DHT22;11910;52.086;21.066;2024-03-02T14:12:10;10.90;99.90
23475;DHT22;11910;52.086;21.066;2024-03-02T14:14:35;10.90;99.90
23475;DHT22;11910;52.086;21.066;2024-03-02T14:17:01;10.80;99.90
23475;DHT22;11910;52.086;21.066;2024-03-02T14:19:31;10.80;99.90
23475;DHT22;11910;52.086;21.066;2024-03-02T14:21:57;10.70;99.90
23475;DHT22;11910;52.086;21.066;2024-03-02T14:24:23;10.70;99.90
23475;DHT22;11910;52.086;21.066;2024-03-02T14:26:53;10.60;99.90
23475;DHT22;11910;52.086;21.066;2024-03-02T14:29:19;10.60;99.90
23475;DHT22;11910;52.086;21.066;2024-03-02T14:31:44;10.60;99.90
23475;DHT22;11910;52.086;21.066;2024-03-02T14:34:14;10.60;99.90
23475;DHT22;11910;52.086;21.066;2024-03-02T14:36:40;10.50;99.90
23475;DHT22;11910;52.086;21.066;2024-03-02T14:39:08;10.50;99.90
23475;DHT22;11910;52.086;21.066;2024-03-02T14:41:36;10.50;99.90
23475;DHT22;11910;52.086;21.066;2024-03-02T14:44:02;10.40;99.90
23475;DHT22;11910;52.086;21.066;2024-03-02T14:46:28;10.40;99.90
23475;DHT22;11910;52.086;21.066;2024-03-02T14:48:53;10.40;99.90
23475;DHT22;11910;52.086;21.066;2024-03-02T14:51:19;10.30;99.90
23475;DHT22;11910;52.086;21.066;2024-03-02T14:53:45;10.30;99.90
23475;DHT22;11910;52.086;21.066;2024-03-02T14:56:11;10.30;99.90
23475;DHT22;11910;52.086;21.066;2024-03-02T14:58:38;10.20;99.90
23475;DHT22;11910;52.086;21.066;2024-03-02T15:01:04;10.20;99.90
23475;DHT22;11910;52.086;21.066;2024-03-02T15:03:35;10.20;99.90
23475;DHT22;11910;52.086;21.066;2024-03-02T15:06:01;10.20;99.90
23475;DHT22;11910;52.086;21.066;2024-03-02T15:08:29;10.20;99.90
23475;DHT22;11910;52.086;21.066;2024-03-02T15:10:55;10.20;99.90
23475;DHT22;11910;52.086;21.066;2024-03-02T15:13:25;10.20;99.90
23475;DHT22;11910;52.086;21.066;2024-03-02T15:15:52;10.20;99.90
23475;DHT22;11910;52.086;21.066;2024-03-02T15:18:18;10.10;99.90
23475;DHT22;11910;52.086;21.066;2024-03-02T15:20:44;10.10;99.90
23475;DHT22;11910;52.086;21.066;2024-03-02T15:23:09;10.10;99.90
23475;DHT22;11910;52.086;21.066;2024-03-02T15:25:36;10.10;99.90
23475;DHT22;11910;52.086;21.066;2024-03-02T15:28:01;10.10;99.90
23475;DHT22;11910;52.086;21.066;2024-03-02T15:30:27;10.00;99.90
23475;DHT22;11910;52.086;21.066;2024-03-02T15:32:53;10.10;99.90
23475;DHT22;11910;52.086;21.066;2024-03-02T15:35:19;10.10;99.90
23475;DHT22;11910;52.086;21.066;2024-03-02T15:37:45;10.10;99.90